Time;durP1;ratioP1;P1;durP2;ratioP2;P2;SDS_P1;SDS_P2;PMS_P1;PMS_P2;Temp;Humidity;BMP_temperature;BMP_pressure;BME280_temperature;BME280_humidity;BME280_pressure;Samples;Min_cycle;Max_cycle;Signal;HPM_P1;HPM_P2
2022/04/15 00:02:16;;;;;;;3.53;3.23;;;14.70;99.90;;;;;;10393438;28;20701;-85
2022/04/15 00:07:18;;;;;;;5.60;3.30;;;14.60;99.90;;;;;;10373897;28;20228;-85
2022/04/15 00:12:28;;;;;;;3.90;3.60;;;14.60;99.90;;;;;;10388322;28;20221;-83
2022/04/15 00:17:30;;;;;;;4.17;3.77;;;14.50;99.90;;;;;;10387118;28;20662;-84
2022/04/15 00:22:33;;;;;;;3.93;3.63;;;14.60;99.90;;;;;;10368625;28;20580;-84
2022/04/15 00:27:36;;;;;;;4.60;3.47;;;14.60;99.90;;;;;;10396285;28;20282;-83
2022/04/15 00:32:39;;;;;;;3.80;3.50;;;14.60;99.90;;;;;;10397094;28;20214;-84
2022/04/15 00:37:41;;;;;;;3.80;3.20;;;14.60;99.90;;;;;;10383430;28;20284;-85
2022/04/15 00:42:45;;;;;;;5.27;3.67;;;14.60;99.90;;;;;;10416823;28;20221;-84
2022/04/15 00:47:51;;;;;;;3.50;3.27;;;14.60;99.90;;;;;;10384428;28;20205;-85
2022/04/15 00:52:54;;;;;;;4.00;3.70;;;14.60;99.90;;;;;;10400550;28;20297;-85
2022/04/15 00:58:00;;;;;;;3.23;3.03;;;14.60;99.90;;;;;;10382886;28;20209;-85
2022/04/15 01:03:04;;;;;;;5.60;3.63;;;14.60;99.90;;;;;;10374523;28;20295;-84
2022/04/15 01:08:08;;;;;;;4.83;3.43;;;14.70;99.90;;;;;;10416259;28;20303;-84
2022/04/15 01:13:13;;;;;;;3.70;3.40;;;14.60;99.90;;;;;;10383896;28;20616;-84
2022/04/15 01:18:16;;;;;;;7.13;3.37;;;14.60;99.90;;;;;;10393193;28;20252;-86
2022/04/15 01:23:20;;;;;;;3.77;3.47;;;14.60;99.90;;;;;;10384792;28;20221;-85
2022/04/15 01:28:23;;;;;;;3.70;3.50;;;14.60;99.90;;;;;;10385344;28;20233;-84
2022/04/15 01:33:25;;;;;;;3.77;3.37;;;14.70;99.90;;;;;;10402214;28;20666;-84
2022/04/15 01:38:28;;;;;;;4.67;3.20;;;14.60;99.90;;;;;;10397391;28;20213;-85
2022/04/15 01:43:31;;;;;;;4.10;3.90;;;14.60;99.90;;;;;;10384168;28;20244;-84
2022/04/15 01:48:33;;;;;;;4.10;3.67;;;14.60;99.90;;;;;;10382237;28;20228;-84
2022/04/15 01:53:36;;;;;;;3.73;3.53;;;14.70;99.90;;;;;;10425614;28;20194;-84
2022/04/15 01:58:39;;;;;;;6.30;3.97;;;14.60;99.90;;;;;;10393209;28;20600;-84
2022/04/15 02:03:42;;;;;;;4.07;3.77;;;14.60;99.90;;;;;;10409900;28;20216;-84
2022/04/15 02:08:45;;;;;;;4.07;3.67;;;14.60;99.90;;;;;;10424097;28;20214;-84
2022/04/15 02:13:47;;;;;;;5.07;4.43;;;14.60;99.90;;;;;;10398953;28;20248;-84
2022/04/15 02:18:49;;;;;;;4.60;4.20;;;14.60;99.90;;;;;;10382925;28;20214;-84
2022/04/15 02:23:53;;;;;;;4.63;4.20;;;14.50;99.90;;;;;;10392520;28;20217;-84
2022/04/15 02:28:55;;;;;;;7.50;4.10;;;14.50;99.90;;;;;;10427612;28;20275;-86
2022/04/15 02:33:57;;;;;;;4.63;4.23;;;14.50;99.90;;;;;;10407012;28;20197;-87
2022/04/15 02:39:01;;;;;;;4.97;4.47;;;14.50;99.90;;;;;;10391227;28;20221;-87
2022/04/15 02:44:04;;;;;;;4.43;4.13;;;14.40;99.90;;;;;;10391865;28;20224;-84
2022/04/15 02:49:06;;;;;;;5.70;5.20;;;14.40;99.90;;;;;;10391383;28;20222;-89
2022/04/15 02:54:09;;;;;;;4.47;4.10;;;14.30;99.90;;;;;;10384134;28;20190;-85
2022/04/15 02:59:12;;;;;;;4.70;4.30;;;14.30;99.90;;;;;;10394345;28;20225;-85
2022/04/15 03:04:14;;;;;;;5.37;4.87;;;14.30;99.90;;;;;;10386050;28;20928;-84
2022/04/15 03:09:17;;;;;;;5.70;5.20;;;14.30;99.90;;;;;;10391399;28;20229;-85
2022/04/15 03:14:19;;;;;;;5.63;4.27;;;14.20;99.90;;;;;;10379065;28;20653;-85
2022/04/15 03:19:22;;;;;;;5.17;4.77;;;14.20;99.90;;;;;;10401103;28;20276;-85
2022/04/15 03:24:25;;;;;;;4.97;4.57;;;14.20;99.90;;;;;;10382229;28;20289;-85
2022/04/15 03:29:28;;;;;;;4.90;4.60;;;14.10;99.90;;;;;;10393356;28;20228;-85
2022/04/15 03:34:30;;;;;;;5.27;4.77;;;14.10;99.90;;;;;;10393659;28;20309;-85
2022/04/15 03:39:35;;;;;;;5.60;4.27;;;14.10;99.90;;;;;;10376366;28;20963;-85
2022/04/15 03:44:38;;;;;;;4.93;4.63;;;14.10;99.90;;;;;;10394770;28;20224;-84
2022/04/15 03:49:40;;;;;;;4.80;4.40;;;14.00;99.90;;;;;;10393599;28;20206;-84
2022/04/15 03:54:43;;;;;;;5.20;4.90;;;14.00;99.90;;;;;;10381138;28;20281;-84
2022/04/15 03:59:45;;;;;;;5.80;4.50;;;13.90;99.90;;;;;;10444680;22;20236;-81
2022/04/15 04:04:47;;;;;;;5.50;4.40;;;13.80;99.90;;;;;;10463112;28;20288;-81
2022/04/15 04:09:51;;;;;;;5.33;4.83;;;13.80;99.90;;;;;;10463593;28;20233;-80
2022/04/15 04:14:53;;;;;;;5.70;5.20;;;13.80;99.90;;;;;;10445275;28;20621;-80
2022/04/15 04:19:55;;;;;;;7.30;4.90;;;13.70;99.90;;;;;;10474203;28;20259;-81
2022/04/15 04:24:59;;;;;;;8.37;5.10;;;13.70;99.90;;;;;;10476128;28;20595;-81
2022/04/15 04:30:01;;;;;;;4.93;4.47;;;13.60;99.90;;;;;;10475574;28;20566;-81
2022/04/15 04:35:05;;;;;;;5.47;5.07;;;13.50;99.90;;;;;;10477349;28;20203;-81
2022/04/15 04:40:10;;;;;;;6.87;6.17;;;13.40;99.90;;;;;;10478515;28;20232;-81
2022/04/15 04:45:13;;;;;;;6.43;5.90;;;13.40;99.90;;;;;;10473194;28;20201;-80
2022/04/15 04:50:16;;;;;;;6.00;5.50;;;13.40;99.90;;;;;;10468648;28;20209;-80
2022/04/15 04:55:20;;;;;;;6.27;5.83;;;13.30;99.90;;;;;;10463494;28;20661;-81
2022/04/15 05:00:22;;;;;;;6.40;5.83;;;13.30;99.90;;;;;;10430472;28;20822;-81
2022/04/15 05:05:25;;;;;;;7.53;6.90;;;13.30;99.90;;;;;;10474403;28;21693;-80
2022/04/15 05:10:28;;;;;;;6.97;6.30;;;13.30;99.90;;;;;;10470060;28;20217;-80
2022/04/15 05:15:30;;;;;;;5.97;5.47;;;13.40;99.90;;;;;;10470044;28;20561;-80
2022/04/15 05:20:32;;;;;;;6.50;5.90;;;13.40;99.90;;;;;;10455665;28;20221;-80
2022/04/15 05:25:36;;;;;;;6.70;6.03;;;13.40;99.90;;;;;;10472042;28;20201;-81
2022/04/15 05:30:38;;;;;;;5.80;5.40;;;13.50;99.90;;;;;;10473176;28;20759;-81
2022/04/15 05:35:40;;;;;;;7.00;6.50;;;13.60;99.90;;;;;;10472245;28;20197;-81
2022/04/15 05:40:44;;;;;;;7.03;6.20;;;13.70;99.90;;;;;;10466701;28;20222;-80
2022/04/15 05:45:46;;;;;;;6.40;5.93;;;13.80;99.90;;;;;;10451277;28;20221;-81
2022/04/15 05:50:48;;;;;;;5.87;5.47;;;13.90;99.90;;;;;;10470655;28;20217;-81
2022/04/15 05:55:51;;;;;;;5.83;5.40;;;14.00;99.90;;;;;;10472850;28;20205;-81
2022/04/15 06:00:54;;;;;;;6.60;6.10;;;14.10;99.90;;;;;;10468804;28;20251;-81
2022/04/15 06:05:56;;;;;;;6.70;6.20;;;14.20;99.90;;;;;;10470416;28;20197;-81
2022/04/15 06:11:00;;;;;;;7.10;6.50;;;14.40;99.90;;;;;;10469869;28;20209;-80
2022/04/15 06:16:05;;;;;;;7.00;6.50;;;14.50;99.90;;;;;;10467116;28;20201;-81
2022/04/15 06:21:07;;;;;;;7.63;6.97;;;14.60;99.90;;;;;;10468272;28;20231;-80
2022/04/15 06:26:10;;;;;;;7.13;6.40;;;14.70;99.90;;;;;;10467452;28;20231;-81
2022/04/15 06:31:13;;;;;;;8.23;7.23;;;14.80;99.90;;;;;;10465021;28;20696;-80
2022/04/15 06:36:15;;;;;;;7.90;6.63;;;14.90;99.90;;;;;;10469063;28;20255;-81
2022/04/15 06:41:18;;;;;;;8.00;7.20;;;15.10;99.90;;;;;;10465690;28;20232;-80
2022/04/15 06:46:20;;;;;;;8.87;7.87;;;15.20;99.90;;;;;;10450680;28;20201;-81
2022/04/15 06:51:25;;;;;;;12.40;11.23;;;15.20;99.90;;;;;;10466764;28;20232;-80
2022/04/15 06:56:28;;;;;;;12.70;11.50;;;15.30;99.90;;;;;;10464399;28;20236;-81
2022/04/15 07:01:32;;;;;;;13.30;11.97;;;15.40;99.90;;;;;;10463813;28;20237;-81
2022/04/15 07:06:34;;;;;;;13.17;11.83;;;15.40;99.90;;;;;;10466984;28;20614;-80
2022/04/15 07:11:38;;;;;;;11.87;10.80;;;15.40;99.90;;;;;;10467648;28;20248;-81
2022/04/15 07:16:40;;;;;;;12.10;11.00;;;15.50;99.90;;;;;;10466546;28;20199;-83
2022/04/15 07:21:43;;;;;;;12.30;11.20;;;15.60;99.90;;;;;;10462484;28;20237;-83
2022/04/15 07:26:46;;;;;;;13.17;11.93;;;15.70;99.90;;;;;;10460564;28;20197;-83
2022/04/15 07:31:49;;;;;;;13.63;12.33;;;15.80;99.90;;;;;;10468404;28;20205;-82
2022/04/15 07:36:54;;;;;;;13.90;12.60;;;15.80;99.90;;;;;;10455870;28;20705;-82
2022/04/15 07:41:58;;;;;;;17.57;15.80;;;15.90;99.90;;;;;;10440195;28;20256;-81
2022/04/15 07:47:01;;;;;;;15.40;14.10;;;16.00;99.90;;;;;;10456076;28;20204;-83
2022/04/15 07:52:04;;;;;;;14.00;12.80;;;16.10;99.90;;;;;;10458225;28;20409;-81
2022/04/15 07:57:08;;;;;;;13.33;12.13;;;16.30;99.90;;;;;;10461998;28;20269;-82
2022/04/15 08:02:13;;;;;;;12.20;11.00;;;16.60;99.90;;;;;;10460063;28;20317;-82
2022/04/15 08:07:15;;;;;;;15.73;14.37;;;16.90;99.90;;;;;;10454484;28;20197;-81
2022/04/15 08:12:19;;;;;;;14.53;13.23;;;17.30;99.90;;;;;;10454539;28;20304;-82
2022/04/15 08:17:21;;;;;;;15.50;14.10;;;17.60;99.90;;;;;;10485756;28;20259;-82
2022/04/15 08:22:23;;;;;;;13.93;12.73;;;17.90;99.90;;;;;;10457362;28;20213;-83
2022/04/15 08:27:27;;;;;;;14.00;12.80;;;18.10;99.90;;;;;;10458859;28;20669;-81
2022/04/15 08:32:33;;;;;;;12.87;11.77;;;18.40;99.90;;;;;;10460463;28;20272;-82
2022/04/15 08:37:36;;;;;;;15.73;14.33;;;18.60;99.90;;;;;;10441786;28;20197;-83
2022/04/15 08:42:40;;;;;;;16.53;14.90;;;18.90;99.90;;;;;;10460488;28;20241;-83
2022/04/15 08:47:43;;;;;;;14.97;13.57;;;19.10;99.90;;;;;;10460927;28;20284;-83
2022/04/15 08:52:46;;;;;;;20.13;16.00;;;19.30;99.90;;;;;;10460727;28;20209;-81
2022/04/15 08:57:50;;;;;;;16.60;15.10;;;19.50;98.40;;;;;;10453081;28;20602;-82
2022/04/15 09:02:54;;;;;;;13.70;12.60;;;19.60;98.30;;;;;;10441265;28;20225;-83
2022/04/15 09:08:05;;;;;;;15.57;14.03;;;19.70;98.20;;;;;;10462793;28;20189;-82
2022/04/15 09:13:20;;;;;;;15.03;13.57;;;19.90;97.50;;;;;;10442760;28;20263;-82
2022/04/15 09:18:29;;;;;;;16.60;15.20;;;20.10;97.90;;;;;;10462785;28;20205;-81
2022/04/15 09:23:31;;;;;;;16.30;14.93;;;20.30;95.80;;;;;;10460812;28;20223;-81
2022/04/15 09:28:35;;;;;;;15.40;14.03;;;20.40;95.70;;;;;;10463941;28;20211;-81
2022/04/15 09:33:38;;;;;;;13.50;12.13;;;20.60;95.40;;;;;;10462107;28;20197;-81
2022/04/15 09:38:42;;;;;;;13.10;11.90;;;20.80;95.20;;;;;;10445772;28;20227;-81
2022/04/15 09:43:51;;;;;;;12.87;11.67;;;21.10;93.90;;;;;;10464337;28;20615;-81
2022/04/15 09:49:02;;;;;;;16.60;15.17;;;21.20;94.30;;;;;;10465490;28;20213;-81
2022/04/15 09:54:10;;;;;;;14.10;12.90;;;21.10;93.60;;;;;;10462042;28;20716;-81
2022/04/15 09:59:15;;;;;;;14.63;13.30;;;21.10;92.20;;;;;;10471709;23;20216;-85
2022/04/15 10:04:20;;;;;;;12.23;11.23;;;21.30;91.90;;;;;;10376956;28;20215;-83
2022/04/15 10:09:23;;;;;;;14.90;13.30;;;21.50;91.60;;;;;;10376692;28;20223;-83
2022/04/15 10:14:27;;;;;;;13.97;12.57;;;21.70;90.70;;;;;;10360845;28;20194;-84
2022/04/15 10:19:31;;;;;;;14.40;12.90;;;21.50;91.40;;;;;;10387510;28;20233;-84
2022/04/15 10:24:33;;;;;;;14.43;13.10;;;21.20;90.80;;;;;;10377357;28;20218;-84
2022/04/15 10:29:37;;;;;;;11.93;10.93;;;21.10;90.70;;;;;;10367912;28;20305;-83
2022/04/15 10:34:46;;;;;;;12.67;11.67;;;20.90;92.20;;;;;;10367053;28;20253;-83
2022/04/15 10:39:51;;;;;;;13.10;11.90;;;20.80;92.80;;;;;;10363698;28;20222;-84
2022/04/15 10:45:01;;;;;;;12.30;11.27;;;20.50;91.60;;;;;;10360633;28;20250;-83
2022/04/15 10:50:06;;;;;;;11.73;10.70;;;20.30;92.60;;;;;;10363247;28;20702;-83
2022/04/15 10:55:10;;;;;;;12.00;11.00;;;20.20;93.60;;;;;;10345745;28;20203;-83
2022/04/15 11:05:52;;;;;;;13.50;12.30;;;20.30;93.80;;;;;;10363464;28;20214;-84
2022/04/15 11:11:03;;;;;;;12.87;11.67;;;20.10;92.20;;;;;;10368099;28;20728;-84
2022/04/15 11:16:13;;;;;;;9.77;8.97;;;20.00;93.80;;;;;;10383836;28;20209;-85
2022/04/15 11:21:17;;;;;;;9.57;8.67;;;19.90;92.40;;;;;;10350144;28;20230;-85
2022/04/15 11:26:21;;;;;;;11.23;10.17;;;19.90;92.80;;;;;;10346090;28;20194;-85
2022/04/15 11:31:26;;;;;;;9.73;9.03;;;19.90;92.40;;;;;;10347008;28;20579;-86
2022/04/15 11:36:28;;;;;;;10.10;9.20;;;19.90;91.10;;;;;;10348542;28;20662;-85
2022/04/15 11:41:30;;;;;;;10.60;9.73;;;19.90;90.60;;;;;;10368702;28;20226;-85
2022/04/15 11:46:42;;;;;;;10.07;9.07;;;20.00;91.00;;;;;;10387880;28;20206;-85
2022/04/15 11:51:46;;;;;;;11.20;10.20;;;20.00;92.50;;;;;;10349594;28;20215;-85
2022/04/15 11:56:49;;;;;;;11.80;10.70;;;20.00;92.70;;;;;;10371524;28;20230;-83
2022/04/15 12:01:54;;;;;;;9.97;9.23;;;19.90;90.50;;;;;;10360965;28;20339;-84
2022/04/15 12:06:57;;;;;;;10.53;9.53;;;19.80;92.80;;;;;;10349568;28;20205;-84
2022/04/15 12:12:01;;;;;;;8.93;8.23;;;19.60;92.20;;;;;;10345481;28;20214;-84
2022/04/15 12:17:07;;;;;;;9.80;9.00;;;19.60;93.50;;;;;;10383744;28;20217;-84
2022/04/15 12:22:09;;;;;;;11.40;10.27;;;19.60;91.50;;;;;;10358553;28;20221;-86
2022/04/15 12:27:16;;;;;;;10.53;9.70;;;19.70;90.50;;;;;;10354847;28;20206;-85
2022/04/15 12:32:23;;;;;;;12.30;11.20;;;19.70;90.40;;;;;;10352201;28;20223;-86
2022/04/15 12:37:41;;;;;;;10.70;9.77;;;19.60;91.00;;;;;;10352004;28;20210;-86
2022/04/15 12:42:45;;;;;;;9.33;8.40;;;19.60;90.60;;;;;;10377885;28;20221;-87
2022/04/15 12:48:00;;;;;;;8.33;7.60;;;19.60;90.90;;;;;;10359111;28;20589;-85
2022/04/15 12:53:13;;;;;;;7.27;6.70;;;19.60;90.50;;;;;;10359377;28;20218;-83
2022/04/15 12:58:21;;;;;;;9.67;7.97;;;19.60;90.60;;;;;;10348852;28;20597;-84
2022/04/15 13:03:25;;;;;;;7.70;6.90;;;19.70;90.90;;;;;;10358922;28;20706;-84
2022/04/15 13:08:28;;;;;;;5.53;5.13;;;19.70;91.10;;;;;;10374578;28;20205;-88
2022/04/15 13:13:30;;;;;;;6.10;5.67;;;19.70;92.10;;;;;;10351035;28;20717;-84
2022/04/15 13:18:34;;;;;;;5.73;5.33;;;19.60;90.20;;;;;;10350557;28;20202;-85
2022/04/15 13:23:36;;;;;;;6.30;5.80;;;19.50;90.90;;;;;;10350873;28;20226;-86
2022/04/15 13:28:39;;;;;;;6.73;6.23;;;19.30;91.10;;;;;;10364791;28;20233;-84
2022/04/15 13:33:43;;;;;;;7.40;6.80;;;19.30;90.00;;;;;;10350066;28;20218;-85
2022/04/15 13:38:46;;;;;;;6.83;6.40;;;19.30;90.60;;;;;;10349247;28;20256;-85
2022/04/15 13:43:48;;;;;;;7.40;6.80;;;19.30;90.30;;;;;;10363617;28;20264;-85
2022/04/15 13:48:52;;;;;;;6.97;6.47;;;19.40;90.30;;;;;;10356555;28;20760;-85
2022/04/15 13:59:15;;;;;;;6.90;6.40;;;19.30;90.10;;;;;;10388919;28;20558;-85
2022/04/15 14:04:18;;;;;;;6.10;5.70;;;19.30;90.20;;;;;;10357171;28;20334;-85
2022/04/15 14:09:23;;;;;;;9.03;8.23;;;19.20;91.20;;;;;;10356960;28;20897;-85
2022/04/15 14:14:25;;;;;;;6.93;6.37;;;19.20;89.80;;;;;;10360603;28;20224;-83
2022/04/15 14:19:28;;;;;;;6.20;5.60;;;19.10;89.50;;;;;;10354381;28;20222;-83
2022/04/15 14:24:33;;;;;;;5.80;5.40;;;19.10;88.00;;;;;;10409599;28;20226;-84
2022/04/15 14:29:35;;;;;;;7.33;6.73;;;19.10;90.40;;;;;;10351714;28;20226;-84
2022/04/15 14:34:40;;;;;;;8.10;6.10;;;19.00;90.60;;;;;;10408616;28;20229;-83
2022/04/15 14:39:42;;;;;;;6.17;5.57;;;19.00;90.40;;;;;;10396458;28;20245;-84
2022/04/15 14:44:44;;;;;;;5.40;5.00;;;18.90;90.10;;;;;;10371834;28;20211;-83
2022/04/15 14:49:48;;;;;;;6.80;6.20;;;19.00;91.00;;;;;;10350612;28;20225;-83
2022/04/15 14:54:51;;;;;;;6.87;6.27;;;18.90;90.20;;;;;;10366383;28;20550;-83
2022/04/15 14:59:53;;;;;;;4.80;4.43;;;18.90;90.20;;;;;;10353124;28;20584;-84
2022/04/15 15:04:56;;;;;;;6.30;5.80;;;19.00;90.10;;;;;;10368943;28;20224;-85
2022/04/15 15:09:59;;;;;;;5.40;4.93;;;19.00;88.20;;;;;;10370082;28;20257;-83
2022/04/15 15:15:01;;;;;;;4.87;4.47;;;19.00;88.90;;;;;;10349813;28;20205;-85
2022/04/15 15:20:06;;;;;;;4.43;4.13;;;19.00;86.10;;;;;;10350214;28;20225;-84
2022/04/15 15:30:37;;;;;;;4.60;4.30;;;19.00;85.90;;;;;;10352296;28;20598;-85
2022/04/15 15:35:41;;;;;;;4.27;3.90;;;19.00;82.90;;;;;;10355689;28;20571;-85
2022/04/15 15:40:46;;;;;;;4.00;3.73;;;19.00;85.10;;;;;;10367188;28;20257;-84
2022/04/15 15:45:49;;;;;;;6.50;4.07;;;19.00;87.90;;;;;;10368573;28;20207;-83
2022/04/15 15:50:52;;;;;;;3.77;3.57;;;19.00;87.60;;;;;;10348288;28;20295;-85
2022/04/15 15:55:54;;;;;;;2.97;2.77;;;18.90;86.30;;;;;;10348708;28;20683;-84
2022/04/15 16:00:57;;;;;;;3.63;3.33;;;18.90;88.80;;;;;;10408796;23;20700;-80
2022/04/15 16:06:00;;;;;;;3.00;2.80;;;18.80;84.70;;;;;;10415312;28;20289;-81
2022/04/15 16:11:02;;;;;;;3.50;3.20;;;18.70;89.80;;;;;;10395716;28;20288;-82
2022/04/15 16:16:05;;;;;;;3.37;3.17;;;18.70;85.90;;;;;;10379348;28;20201;-83
2022/04/15 16:21:08;;;;;;;3.50;3.27;;;18.70;82.50;;;;;;10416835;28;20279;-82
2022/04/15 16:26:11;;;;;;;2.90;2.70;;;18.60;87.70;;;;;;10385918;28;20221;-82
2022/04/15 16:31:15;;;;;;;3.23;2.93;;;18.50;91.10;;;;;;10391021;28;20241;-82
2022/04/15 16:36:19;;;;;;;2.67;2.43;;;18.40;90.00;;;;;;10420876;28;20198;-81
2022/04/15 16:41:23;;;;;;;2.73;2.53;;;18.40;90.00;;;;;;10421422;28;20217;-81
2022/04/15 16:46:25;;;;;;;4.00;1.87;;;18.30;92.00;;;;;;10382665;28;20232;-83
2022/04/15 16:51:29;;;;;;;2.27;2.17;;;18.20;89.30;;;;;;10402149;28;20852;-82
2022/04/15 17:01:51;;;;;;;2.43;2.23;;;18.10;93.40;;;;;;10388275;28;20702;-83
2022/04/15 17:06:55;;;;;;;2.00;1.90;;;18.10;93.10;;;;;;10394326;28;20501;-81
2022/04/15 17:11:57;;;;;;;2.10;2.00;;;18.00;91.70;;;;;;10397002;28;20229;-80
2022/04/15 17:17:02;;;;;;;2.10;2.00;;;18.00;92.20;;;;;;10397754;28;20190;-81
2022/04/15 17:22:06;;;;;;;2.53;2.37;;;17.90;93.10;;;;;;10426158;28;20225;-80
2022/04/15 17:27:08;;;;;;;7.30;2.00;;;17.90;93.20;;;;;;10418598;28;20226;-80
2022/04/15 17:32:10;;;;;;;2.03;1.93;;;17.80;92.10;;;;;;10403440;28;20245;-80
2022/04/15 17:37:14;;;;;;;2.20;1.77;;;17.80;93.70;;;;;;10416307;28;20264;-81
2022/04/15 17:42:16;;;;;;;1.90;1.80;;;17.70;93.50;;;;;;10417062;28;20226;-80
2022/04/15 17:47:18;;;;;;;2.10;2.00;;;17.70;93.60;;;;;;10430983;28;20229;-80
2022/04/15 17:52:22;;;;;;;4.30;2.37;;;17.70;95.00;;;;;;10398450;28;20217;-80
2022/04/15 17:57:24;;;;;;;2.30;2.20;;;17.60;95.40;;;;;;10415261;28;20205;-80
2022/04/15 18:02:29;;;;;;;2.23;2.10;;;17.50;96.00;;;;;;10415039;28;20279;-80
2022/04/15 18:07:39;;;;;;;1.83;1.73;;;17.40;96.40;;;;;;10378905;28;20329;-80
2022/04/15 18:12:42;;;;;;;5.63;1.90;;;17.30;96.40;;;;;;10376720;28;20237;-82
2022/04/15 18:17:44;;;;;;;2.37;2.23;;;17.20;95.30;;;;;;10409091;28;20655;-81
2022/04/15 18:22:47;;;;;;;2.63;2.40;;;17.10;95.70;;;;;;10386953;28;20268;-79
2022/04/15 18:27:50;;;;;;;3.03;2.57;;;17.10;96.90;;;;;;10408790;28;20664;-80
2022/04/15 18:32:52;;;;;;;2.67;2.40;;;17.00;97.40;;;;;;10411624;28;20259;-81
2022/04/15 18:37:56;;;;;;;2.97;2.77;;;16.90;97.70;;;;;;10392698;28;20206;-80
2022/04/15 18:42:59;;;;;;;2.07;1.87;;;16.90;98.00;;;;;;10410882;28;20244;-80
2022/04/15 18:52:34;;;;;;;2.20;2.00;;;16.80;97.50;;;;;;10392798;28;20205;-82
2022/04/15 18:53:24;;;;;;;2.60;2.50;;;16.80;98.10;;;;;;10376529;28;20221;-80
2022/04/15 18:58:27;;;;;;;3.10;2.80;;;16.70;97.80;;;;;;10411456;28;20281;-81
2022/04/15 19:03:29;;;;;;;3.70;3.33;;;16.70;98.60;;;;;;10397476;28;20345;-80
2022/04/15 19:08:32;;;;;;;3.47;3.17;;;16.70;98.90;;;;;;10414348;28;20221;-80
2022/04/15 19:13:35;;;;;;;2.40;2.30;;;16.60;98.70;;;;;;10400597;28;20214;-80
2022/04/15 19:18:37;;;;;;;2.70;2.50;;;16.60;99.20;;;;;;10394237;28;20233;-80
2022/04/15 19:23:41;;;;;;;2.73;2.53;;;16.60;98.70;;;;;;10426354;28;20252;-80
2022/04/15 19:28:44;;;;;;;3.13;2.93;;;16.50;98.00;;;;;;10392840;28;20279;-80
2022/04/15 19:33:46;;;;;;;3.60;2.90;;;16.50;97.90;;;;;;10404045;28;20279;-80
2022/04/15 19:38:49;;;;;;;2.90;2.67;;;16.50;98.50;;;;;;10390467;28;20216;-80
2022/04/15 19:43:51;;;;;;;3.13;2.83;;;16.60;99.10;;;;;;10394305;28;20242;-81
2022/04/15 19:48:54;;;;;;;3.10;2.90;;;16.50;99.20;;;;;;10415147;28;20205;-80
2022/04/15 19:53:58;;;;;;;3.57;3.27;;;16.50;99.50;;;;;;10414382;28;20225;-80
2022/04/15 20:04:20;;;;;;;3.53;3.23;;;16.40;96.30;;;;;;10381676;28;20217;-80
2022/04/15 20:09:23;;;;;;;3.00;2.80;;;16.30;94.30;;;;;;10400728;28;20209;-80
2022/04/15 20:14:26;;;;;;;3.20;3.00;;;16.30;94.80;;;;;;10408329;28;20558;-80
2022/04/15 20:19:28;;;;;;;5.13;4.27;;;16.20;96.50;;;;;;10409390;28;20320;-79
2022/04/15 20:24:31;;;;;;;3.70;3.47;;;16.20;96.60;;;;;;10389522;28;20826;-78
2022/04/15 20:29:34;;;;;;;4.10;3.67;;;16.00;96.80;;;;;;10388040;28;20293;-80
2022/04/15 20:34:36;;;;;;;3.43;3.23;;;16.00;96.80;;;;;;10402577;28;20204;-79
2022/04/15 20:39:40;;;;;;;4.80;4.50;;;15.90;98.00;;;;;;10378506;28;20222;-78
2022/04/15 20:44:42;;;;;;;4.40;4.00;;;15.80;97.20;;;;;;10404195;28;20645;-79
2022/04/15 20:49:54;;;;;;;4.67;4.20;;;15.70;96.80;;;;;;10397304;28;20230;-78
2022/04/15 20:55:00;;;;;;;4.00;3.70;;;15.70;95.00;;;;;;10387051;28;20258;-79
2022/04/15 21:00:02;;;;;;;4.27;3.87;;;15.60;96.80;;;;;;10407411;28;20898;-79
2022/04/15 21:05:06;;;;;;;4.00;3.70;;;15.50;97.10;;;;;;10411522;28;20229;-80
2022/04/15 21:10:11;;;;;;;4.70;4.40;;;15.50;98.20;;;;;;10414682;28;20249;-78
2022/04/15 21:15:13;;;;;;;5.13;4.63;;;15.40;98.20;;;;;;10408909;28;20198;-79
2022/04/15 21:20:15;;;;;;;5.60;5.10;;;15.40;98.00;;;;;;10410692;28;20229;-79
2022/04/15 21:25:19;;;;;;;3.40;3.10;;;15.30;96.50;;;;;;10414096;28;20229;-80
2022/04/15 21:30:21;;;;;;;3.73;3.43;;;15.20;95.80;;;;;;10407723;28;20221;-82
2022/04/15 21:35:23;;;;;;;3.10;2.90;;;15.10;97.20;;;;;;10414346;28;20194;-81
2022/04/15 21:40:28;;;;;;;3.70;3.40;;;15.00;95.70;;;;;;10417151;28;20286;-80
2022/04/15 21:45:30;;;;;;;3.70;3.40;;;15.00;97.00;;;;;;10394970;28;20222;-79
2022/04/15 21:55:55;;;;;;;3.67;3.17;;;14.80;97.60;;;;;;10412893;28;20585;-80
2022/04/15 22:01:01;;;;;;;3.80;3.50;;;14.70;97.80;;;;;;10418842;22;20245;-83
2022/04/15 22:06:03;;;;;;;3.47;3.20;;;14.70;96.80;;;;;;10382095;28;20232;-83
2022/04/15 22:11:07;;;;;;;3.60;3.30;;;14.70;97.50;;;;;;10394243;28;20305;-81
2022/04/15 22:16:09;;;;;;;3.80;3.50;;;14.70;97.40;;;;;;10411385;28;20198;-81
2022/04/15 22:21:12;;;;;;;3.30;3.07;;;14.80;96.90;;;;;;10396803;28;20249;-81
2022/04/15 22:26:15;;;;;;;3.93;3.63;;;14.70;95.40;;;;;;10404492;28;20565;-81
2022/04/15 22:31:18;;;;;;;3.60;3.40;;;14.70;97.50;;;;;;10401751;28;20662;-81
2022/04/15 22:36:21;;;;;;;3.90;3.50;;;14.70;97.30;;;;;;10401117;28;20190;-81
2022/04/15 22:41:24;;;;;;;3.37;3.17;;;14.60;97.40;;;;;;10397299;28;20597;-81
2022/04/15 22:46:27;;;;;;;3.53;3.10;;;14.60;98.60;;;;;;10417969;28;20634;-81
2022/04/15 22:51:29;;;;;;;3.77;3.57;;;14.60;97.60;;;;;;10419057;28;20249;-81
2022/04/15 23:01:52;;;;;;;3.50;3.20;;;14.50;97.50;;;;;;10418129;28;20225;-80
2022/04/15 23:06:54;;;;;;;4.50;3.60;;;14.40;97.70;;;;;;10408398;28;20214;-81
2022/04/15 23:11:58;;;;;;;3.90;3.60;;;14.30;97.30;;;;;;10422579;28;20300;-80
2022/04/15 23:17:01;;;;;;;3.70;3.47;;;14.20;97.30;;;;;;10403538;28;20654;-81
2022/04/15 23:22:04;;;;;;;3.70;3.47;;;14.10;98.20;;;;;;10399972;28;20226;-82
2022/04/15 23:27:07;;;;;;;3.40;3.10;;;14.10;97.20;;;;;;10390412;28;20317;-82
2022/04/15 23:32:10;;;;;;;3.73;3.43;;;14.00;97.70;;;;;;10401718;28;20241;-82
2022/04/15 23:37:12;;;;;;;2.97;2.87;;;13.90;98.10;;;;;;10379534;28;20255;-82
2022/04/15 23:42:15;;;;;;;3.60;3.30;;;13.80;97.40;;;;;;10399878;28;20210;-82
2022/04/15 23:52:37;;;;;;;3.60;3.30;;;13.70;98.70;;;;;;10421274;28;20267;-82
2022/04/15 23:57:41;;;;;;;2.90;2.80;;;13.70;98.70;;;;;;10401261;28;20194;-82
